^^
Station Historical Data
Daily Summary for February 11, 2018 Units:  Both    English   Metric
« Previous Day
Next Day »
Daily Weekly Monthly Yearly Custom
  High: Low: Average:
Temperature: TemperatureF °F /  -17.8 °C 58.5 °F /  14.7 °C 67.8 °F /  19.9 °C
Dew Point: DewpointF °F /  -17.8 °C 54.7 °F /  12.6 °C 55.6 °F /  13.1 °C
Humidity: Humidity% 52% 65%
Wind Speed: WindSpeedMPHmph /  0km/h - -13mph /  -20.9km/h
Wind Gust: WindSpeedGustMPHmph /  0km/h - -
Wind- -
Pressure: PressureIn in /  0 hPa 29.69 in /  1005.3 hPa -
Precipitation: 0.00 in /  0 mm    
Historical Graphs
 
 
Tabular Data for February 11, 2018
Time Temperature Dew Point Pressure Wind Wind Speed Wind Gust Humidity Rainfall Rate (Hourly) solar Conditions
TemperatureF °F /  -17.8 °C DewpointF °F /  -17.8 °C PressureInin /  0hPa Calm     Humidity% HourlyPrecipInin /  0mm SoftwareType W/m2 Conditions
08:48 58.5 °F /  14.7 °C 54.9 °F /  12.7 °C 29.77in /  1008hPa North -999.9mph /  -1609.1km/h -999.0mph /  -1607.7km/h 88% 0.00in /  0mm meteobridge W/m2
08:54 58.8 °F /  14.9 °C 55.0 °F /  12.8 °C 29.77in /  1008hPa NNE 8.9mph /  14.3km/h 14.0mph /  22.5km/h 87% 0.00in /  0mm meteobridge W/m2
09:00 59.2 °F /  15.1 °C 55.4 °F /  13 °C 29.77in /  1008hPa NE 4.9mph /  7.9km/h 16.0mph /  25.7km/h 87% 0.00in /  0mm meteobridge W/m2
09:06 58.8 °F /  14.9 °C 55.0 °F /  12.8 °C 29.77in /  1008hPa NNW 6.9mph /  11.1km/h 13.0mph /  20.9km/h 87% 0.00in /  0mm meteobridge W/m2
09:12 59.4 °F /  15.2 °C 55.2 °F /  12.9 °C 29.77in /  1008hPa NNE 8.9mph /  14.3km/h 14.0mph /  22.5km/h 86% 0.00in /  0mm meteobridge W/m2
09:18 59.4 °F /  15.2 °C 55.2 °F /  12.9 °C 29.77in /  1008hPa NNE 8.9mph /  14.3km/h 15.0mph /  24.1km/h 86% 0.00in /  0mm meteobridge W/m2
09:24 59.2 °F /  15.1 °C 55.0 °F /  12.8 °C 29.78in /  1008.4hPa North 12.1mph /  19.5km/h 14.0mph /  22.5km/h 86% 0.00in /  0mm meteobridge W/m2
09:31 59.4 °F /  15.2 °C 55.2 °F /  12.9 °C 29.78in /  1008.4hPa NNE 8.1mph /  13km/h 14.0mph /  22.5km/h 86% 0.00in /  0mm meteobridge W/m2
09:37 59.9 °F /  15.5 °C 55.8 °F /  13.2 °C 29.78in /  1008.4hPa North 8.1mph /  13km/h 13.0mph /  20.9km/h 86% 0.00in /  0mm meteobridge W/m2
09:43 60.1 °F /  15.6 °C 55.9 °F /  13.3 °C 29.77in /  1008hPa NNE 10.1mph /  16.3km/h 14.0mph /  22.5km/h 86% 0.00in /  0mm meteobridge W/m2
09:49 60.1 °F /  15.6 °C 55.6 °F /  13.1 °C 29.77in /  1008hPa NNE 13.0mph /  20.9km/h 16.0mph /  25.7km/h 85% 0.00in /  0mm meteobridge W/m2
09:55 60.3 °F /  15.7 °C 55.4 °F /  13 °C 29.77in /  1008hPa North 11.0mph /  17.7km/h 16.0mph /  25.7km/h 84% 0.00in /  0mm meteobridge W/m2
10:01 60.6 °F /  15.9 °C 55.8 °F /  13.2 °C 29.77in /  1008hPa North 14.1mph /  22.7km/h 15.0mph /  24.1km/h 84% 0.00in /  0mm meteobridge W/m2
10:07 61.3 °F /  16.3 °C 56.1 °F /  13.4 °C 29.77in /  1008hPa North 11.0mph /  17.7km/h 14.0mph /  22.5km/h 83% 0.00in /  0mm meteobridge W/m2
10:14 62.1 °F /  16.7 °C 56.5 °F /  13.6 °C 29.78in /  1008.4hPa North 10.1mph /  16.3km/h 13.0mph /  20.9km/h 82% 0.00in /  0mm meteobridge W/m2
10:20 62.6 °F /  17 °C 56.3 °F /  13.5 °C 29.77in /  1008hPa NNE 13.0mph /  20.9km/h 14.0mph /  22.5km/h 80% 0.00in /  0mm meteobridge W/m2
10:26 63.3 °F /  17.4 °C 56.7 °F /  13.7 °C 29.77in /  1008hPa NNE 10.1mph /  16.3km/h 16.0mph /  25.7km/h 79% 0.00in /  0mm meteobridge W/m2
10:32 64.2 °F /  17.9 °C 57.2 °F /  14 °C 29.77in /  1008hPa NNE 6.0mph /  9.7km/h 12.0mph /  19.3km/h 78% 0.00in /  0mm meteobridge W/m2
10:38 64.2 °F /  17.9 °C 56.1 °F /  13.4 °C 29.77in /  1008hPa NNE 11.0mph /  17.7km/h 15.0mph /  24.1km/h 75% 0.00in /  0mm meteobridge W/m2
10:44 64.2 °F /  17.9 °C 56.8 °F /  13.8 °C 29.77in /  1008hPa North 10.1mph /  16.3km/h 14.0mph /  22.5km/h 77% 0.00in /  0mm meteobridge W/m2
10:50 64.0 °F /  17.8 °C 55.9 °F /  13.3 °C 29.77in /  1008hPa NNW 10.1mph /  16.3km/h 14.0mph /  22.5km/h 75% 0.00in /  0mm meteobridge W/m2
10:56 64.6 °F /  18.1 °C 56.8 °F /  13.8 °C 29.77in /  1008hPa North 11.0mph /  17.7km/h 16.0mph /  25.7km/h 76% 0.00in /  0mm meteobridge W/m2
11:02 65.1 °F /  18.4 °C 56.7 °F /  13.7 °C 29.77in /  1008hPa North 4.9mph /  7.9km/h 15.0mph /  24.1km/h 74% 0.00in /  0mm meteobridge W/m2
11:09 65.7 °F /  18.7 °C 56.8 °F /  13.8 °C 29.77in /  1008hPa NNW 6.9mph /  11.1km/h 13.0mph /  20.9km/h 73% 0.00in /  0mm meteobridge W/m2
11:15 65.8 °F /  18.8 °C 56.5 °F /  13.6 °C 29.77in /  1008hPa NNE 6.0mph /  9.7km/h 13.0mph /  20.9km/h 72% 0.00in /  0mm meteobridge W/m2
11:21 65.8 °F /  18.8 °C 56.5 °F /  13.6 °C 29.77in /  1008hPa NNE 4.9mph /  7.9km/h 13.0mph /  20.9km/h 72% 0.00in /  0mm meteobridge W/m2
11:27 66.2 °F /  19 °C 56.8 °F /  13.8 °C 29.77in /  1008hPa North 6.0mph /  9.7km/h 10.0mph /  16.1km/h 72% 0.00in /  0mm meteobridge W/m2
11:33 66.0 °F /  18.9 °C 57.2 °F /  14 °C 29.77in /  1008hPa NNE 6.0mph /  9.7km/h 13.0mph /  20.9km/h 73% 0.00in /  0mm meteobridge W/m2
11:39 66.0 °F /  18.9 °C 57.2 °F /  14 °C 29.77in /  1008hPa NNW 6.0mph /  9.7km/h 12.0mph /  19.3km/h 73% 0.00in /  0mm meteobridge W/m2
11:45 66.6 °F /  19.2 °C 57.2 °F /  14 °C 29.77in /  1008hPa NE 8.9mph /  14.3km/h 10.0mph /  16.1km/h 72% 0.00in /  0mm meteobridge W/m2
11:51 67.8 °F /  19.9 °C 57.7 °F /  14.3 °C 29.77in /  1008hPa NNE 6.9mph /  11.1km/h 10.0mph /  16.1km/h 70% 0.00in /  0mm meteobridge W/m2
11:57 67.5 °F /  19.7 °C 57.0 °F /  13.9 °C 29.77in /  1008hPa North 8.1mph /  13km/h 12.0mph /  19.3km/h 69% 0.00in /  0mm meteobridge W/m2
12:03 67.3 °F /  19.6 °C 57.2 °F /  14 °C 29.77in /  1008hPa NNE 4.9mph /  7.9km/h 13.0mph /  20.9km/h 70% 0.00in /  0mm meteobridge W/m2
12:10 67.6 °F /  19.8 °C 57.6 °F /  14.2 °C 29.77in /  1008hPa NNW 6.0mph /  9.7km/h 10.0mph /  16.1km/h 70% 0.00in /  0mm meteobridge W/m2
12:16 67.5 °F /  19.7 °C 55.8 °F /  13.2 °C 29.77in /  1008hPa North 2.9mph /  4.7km/h 5.0mph /  8km/h 66% 0.00in /  0mm meteobridge W/m2
12:22 69.3 °F /  20.7 °C 56.5 °F /  13.6 °C 29.77in /  1008hPa ENE 2.9mph /  4.7km/h 9.0mph /  14.5km/h 64% 0.00in /  0mm meteobridge W/m2
12:28 70.7 °F /  21.5 °C 56.1 °F /  13.4 °C 29.77in /  1008hPa NE 4.9mph /  7.9km/h 11.0mph /  17.7km/h 60% 0.00in /  0mm meteobridge W/m2
12:34 70.5 °F /  21.4 °C 55.6 °F /  13.1 °C 29.77in /  1008hPa ENE 2.9mph /  4.7km/h 17.0mph /  27.4km/h 59% 0.00in /  0mm meteobridge W/m2
12:40 71.1 °F /  21.7 °C 55.9 °F /  13.3 °C 29.76in /  1007.7hPa North 14.1mph /  22.7km/h 14.1mph /  22.7km/h 59% 0.00in /  0mm meteobridge W/m2
12:46 70.9 °F /  21.6 °C 56.8 °F /  13.8 °C 29.76in /  1007.7hPa ENE 2.9mph /  4.7km/h 14.0mph /  22.5km/h 61% 0.00in /  0mm meteobridge W/m2
12:52 71.4 °F /  21.9 °C 56.8 °F /  13.8 °C 29.76in /  1007.7hPa NE 8.9mph /  14.3km/h 12.0mph /  19.3km/h 60% 0.00in /  0mm meteobridge W/m2
12:59 70.7 °F /  21.5 °C 55.2 °F /  12.9 °C 29.76in /  1007.7hPa NNE 11.0mph /  17.7km/h 12.0mph /  19.3km/h 58% 0.00in /  0mm meteobridge W/m2
13:05 69.6 °F /  20.9 °C 54.7 °F /  12.6 °C 29.76in /  1007.7hPa NNE 6.9mph /  11.1km/h 16.0mph /  25.7km/h 59% 0.00in /  0mm meteobridge W/m2
13:11 70.2 °F /  21.2 °C 55.6 °F /  13.1 °C 29.76in /  1007.7hPa North 14.1mph /  22.7km/h 16.0mph /  25.7km/h 60% 0.00in /  0mm meteobridge W/m2
13:17 70.5 °F /  21.4 °C 55.6 °F /  13.1 °C 29.76in /  1007.7hPa NE 6.0mph /  9.7km/h 11.0mph /  17.7km/h 59% 0.00in /  0mm meteobridge W/m2
13:23 72.1 °F /  22.3 °C 56.5 °F /  13.6 °C 29.76in /  1007.7hPa NE 12.1mph /  19.5km/h 18.0mph /  29km/h 58% 0.00in /  0mm meteobridge W/m2
13:29 71.4 °F /  21.9 °C 56.3 °F /  13.5 °C 29.76in /  1007.7hPa NNE 10.1mph /  16.3km/h 14.0mph /  22.5km/h 59% 0.00in /  0mm meteobridge W/m2
13:35 70.7 °F /  21.5 °C 56.1 °F /  13.4 °C 29.76in /  1007.7hPa NE 8.1mph /  13km/h 16.0mph /  25.7km/h 60% 0.00in /  0mm meteobridge W/m2
13:42 69.3 °F /  20.7 °C 55.8 °F /  13.2 °C 29.76in /  1007.7hPa Calm   12.0mph /  19.3km/h 62% 0.00in /  0mm meteobridge W/m2
13:48 68.7 °F /  20.4 °C 55.6 °F /  13.1 °C 29.76in /  1007.7hPa NNE 4.0mph /  6.4km/h 12.0mph /  19.3km/h 63% 0.00in /  0mm meteobridge W/m2
13:54 68.5 °F /  20.3 °C 55.4 °F /  13 °C 29.76in /  1007.7hPa NE 11.0mph /  17.7km/h 16.0mph /  25.7km/h 63% 0.00in /  0mm meteobridge W/m2
14:00 68.5 °F /  20.3 °C 55.9 °F /  13.3 °C 29.75in /  1007.3hPa NNE 14.1mph /  22.7km/h 21.0mph /  33.8km/h 64% 0.00in /  0mm meteobridge W/m2
14:06 70.2 °F /  21.2 °C 56.5 °F /  13.6 °C 29.75in /  1007.3hPa NNE 6.9mph /  11.1km/h 18.0mph /  29km/h 62% 0.00in /  0mm meteobridge W/m2
14:12 71.4 °F /  21.9 °C 56.3 °F /  13.5 °C 29.73in /  1006.7hPa NE 6.9mph /  11.1km/h 15.0mph /  24.1km/h 59% 0.00in /  0mm meteobridge W/m2
14:18 71.4 °F /  21.9 °C 55.9 °F /  13.3 °C 29.73in /  1006.7hPa NE 6.9mph /  11.1km/h 14.0mph /  22.5km/h 58% 0.00in /  0mm meteobridge W/m2
14:25 73.8 °F /  23.2 °C 57.0 °F /  13.9 °C 29.73in /  1006.7hPa ENE 4.9mph /  7.9km/h 10.0mph /  16.1km/h 56% 0.00in /  0mm meteobridge W/m2
14:31 73.8 °F /  23.2 °C 56.1 °F /  13.4 °C 29.73in /  1006.7hPa SE 4.0mph /  6.4km/h 10.0mph /  16.1km/h 54% 0.00in /  0mm meteobridge W/m2
14:37 75.2 °F /  24 °C 56.8 °F /  13.8 °C 29.72in /  1006.3hPa NNE 12.1mph /  19.5km/h 12.1mph /  19.5km/h 53% 0.00in /  0mm meteobridge W/m2
14:43 73.6 °F /  23.1 °C 56.5 °F /  13.6 °C 29.72in /  1006.3hPa NNE 12.1mph /  19.5km/h 17.0mph /  27.4km/h 55% 0.00in /  0mm meteobridge W/m2
14:49 71.8 °F /  22.1 °C 56.1 °F /  13.4 °C 29.72in /  1006.3hPa NNE 4.9mph /  7.9km/h 10.0mph /  16.1km/h 58% 0.00in /  0mm meteobridge W/m2
14:55 71.8 °F /  22.1 °C 56.1 °F /  13.4 °C 29.72in /  1006.3hPa NE 0.9mph /  1.4km/h 13.0mph /  20.9km/h 58% 0.00in /  0mm meteobridge W/m2
15:01 71.8 °F /  22.1 °C 56.1 °F /  13.4 °C 29.72in /  1006.3hPa ENE 2.0mph /  3.2km/h 6.0mph /  9.7km/h 58% 0.00in /  0mm meteobridge W/m2
15:07 72.7 °F /  22.6 °C 57.0 °F /  13.9 °C 29.71in /  1006hPa ENE 4.9mph /  7.9km/h 7.0mph /  11.3km/h 58% 0.00in /  0mm meteobridge W/m2
15:13 74.1 °F /  23.4 °C 56.8 °F /  13.8 °C 29.70in /  1005.6hPa SE 2.0mph /  3.2km/h 11.0mph /  17.7km/h 55% 0.00in /  0mm meteobridge W/m2
15:19 75.0 °F /  23.9 °C 56.7 °F /  13.7 °C 29.70in /  1005.6hPa NNE 4.9mph /  7.9km/h 6.0mph /  9.7km/h 53% 0.00in /  0mm meteobridge W/m2
15:25 75.2 °F /  24 °C 56.8 °F /  13.8 °C 29.70in /  1005.6hPa NNE 2.0mph /  3.2km/h 7.0mph /  11.3km/h 53% 0.00in /  0mm meteobridge W/m2
15:31 75.6 °F /  24.2 °C 56.7 °F /  13.7 °C 29.70in /  1005.6hPa NNE 2.0mph /  3.2km/h 10.0mph /  16.1km/h 52% 0.00in /  0mm meteobridge W/m2
15:37 74.8 °F /  23.8 °C 57.0 °F /  13.9 °C 29.70in /  1005.6hPa ESE 6.0mph /  9.7km/h 12.0mph /  19.3km/h 54% 0.00in /  0mm meteobridge W/m2
15:43 73.2 °F /  22.9 °C 57.0 °F /  13.9 °C 29.70in /  1005.6hPa ENE 4.9mph /  7.9km/h 16.0mph /  25.7km/h 57% 0.00in /  0mm meteobridge W/m2
15:50 71.4 °F /  21.9 °C 56.3 °F /  13.5 °C 29.70in /  1005.6hPa NE 2.0mph /  3.2km/h 10.0mph /  16.1km/h 59% 0.00in /  0mm meteobridge W/m2
15:56 71.4 °F /  21.9 °C 57.2 °F /  14 °C 29.69in /  1005.3hPa ENE 12.1mph /  19.5km/h 12.1mph /  19.5km/h 61% 0.00in /  0mm meteobridge W/m2
16:02 72.3 °F /  22.4 °C 56.7 °F /  13.7 °C 29.69in /  1005.3hPa NE 10.1mph /  16.3km/h 15.0mph /  24.1km/h 58% 0.00in /  0mm meteobridge W/m2
16:08 73.0 °F /  22.8 °C 56.5 °F /  13.6 °C 29.69in /  1005.3hPa ENE 4.0mph /  6.4km/h 12.0mph /  19.3km/h 56% 0.00in /  0mm meteobridge W/m2
16:14 73.6 °F /  23.1 °C 55.9 °F /  13.3 °C 29.69in /  1005.3hPa ESE 2.9mph /  4.7km/h 7.0mph /  11.3km/h 54% 0.00in /  0mm meteobridge W/m2
16:20 72.9 °F /  22.7 °C 55.2 °F /  12.9 °C 29.69in /  1005.3hPa NE 8.9mph /  14.3km/h 13.0mph /  20.9km/h 54% 0.00in /  0mm meteobridge W/m2
16:27 72.3 °F /  22.4 °C 55.2 °F /  12.9 °C 29.69in /  1005.3hPa NE 4.0mph /  6.4km/h 6.0mph /  9.7km/h 55% 0.00in /  0mm meteobridge W/m2
16:33 72.9 °F /  22.7 °C 55.8 °F /  13.2 °C 29.69in /  1005.3hPa NNE 8.1mph /  13km/h 11.0mph /  17.7km/h 55% 0.00in /  0mm meteobridge W/m2
16:39 72.5 °F /  22.5 °C 54.9 °F /  12.7 °C 29.70in /  1005.6hPa NE 2.9mph /  4.7km/h 9.0mph /  14.5km/h 54% 0.00in /  0mm meteobridge W/m2
16:45 72.5 °F /  22.5 °C 55.9 °F /  13.3 °C 29.70in /  1005.6hPa North 2.9mph /  4.7km/h 6.0mph /  9.7km/h 56% 0.00in /  0mm meteobridge W/m2
16:51 72.7 °F /  22.6 °C 56.1 °F /  13.4 °C 29.69in /  1005.3hPa East 2.9mph /  4.7km/h 4.0mph /  6.4km/h 56% 0.00in /  0mm meteobridge W/m2
16:57 73.4 °F /  23 °C 56.3 °F /  13.5 °C 29.70in /  1005.6hPa SE 2.9mph /  4.7km/h 5.0mph /  8km/h 55% 0.00in /  0mm meteobridge W/m2
17:03 73.6 °F /  23.1 °C 56.5 °F /  13.6 °C 29.70in /  1005.6hPa NNE 6.0mph /  9.7km/h 9.0mph /  14.5km/h 55% 0.00in /  0mm meteobridge W/m2
17:09 72.5 °F /  22.5 °C 55.9 °F /  13.3 °C 29.69in /  1005.3hPa North 4.9mph /  7.9km/h 6.0mph /  9.7km/h 56% 0.00in /  0mm meteobridge W/m2
17:15 71.8 °F /  22.1 °C 55.8 °F /  13.2 °C 29.70in /  1005.6hPa NE 2.9mph /  4.7km/h 6.0mph /  9.7km/h 57% 0.00in /  0mm meteobridge W/m2
17:22 71.4 °F /  21.9 °C 55.9 °F /  13.3 °C 29.70in /  1005.6hPa Calm   4.0mph /  6.4km/h 58% 0.00in /  0mm meteobridge W/m2
17:28 71.2 °F /  21.8 °C 56.1 °F /  13.4 °C 29.69in /  1005.3hPa ENE 4.9mph /  7.9km/h 6.0mph /  9.7km/h 59% 0.00in /  0mm meteobridge W/m2
17:34 70.9 °F /  21.6 °C 55.8 °F /  13.2 °C 29.69in /  1005.3hPa East 2.0mph /  3.2km/h 5.0mph /  8km/h 59% 0.00in /  0mm meteobridge W/m2
17:40 70.5 °F /  21.4 °C 55.6 °F /  13.1 °C 29.70in /  1005.6hPa East 0.9mph /  1.4km/h 7.0mph /  11.3km/h 59% 0.00in /  0mm meteobridge W/m2
17:46 70.3 °F /  21.3 °C 55.8 °F /  13.2 °C 29.69in /  1005.3hPa NNE 2.9mph /  4.7km/h 7.0mph /  11.3km/h 60% 0.00in /  0mm meteobridge W/m2
17:52 70.2 °F /  21.2 °C 56.5 °F /  13.6 °C 29.69in /  1005.3hPa ENE 2.9mph /  4.7km/h 3.0mph /  4.8km/h 62% 0.00in /  0mm meteobridge W/m2
17:58 70.0 °F /  21.1 °C 56.3 °F /  13.5 °C 29.69in /  1005.3hPa ENE 0.9mph /  1.4km/h 5.0mph /  8km/h 62% 0.00in /  0mm meteobridge W/m2
18:04 70.0 °F /  21.1 °C 55.9 °F /  13.3 °C 29.70in /  1005.6hPa SSE 0.9mph /  1.4km/h 4.0mph /  6.4km/h 61% 0.00in /  0mm meteobridge W/m2
18:11 69.6 °F /  20.9 °C 55.6 °F /  13.1 °C 29.70in /  1005.6hPa South 2.9mph /  4.7km/h 9.0mph /  14.5km/h 61% 0.00in /  0mm meteobridge W/m2
18:16 69.4 °F /  20.8 °C 55.4 °F /  13 °C 29.69in /  1005.3hPa South 4.9mph /  7.9km/h 7.0mph /  11.3km/h 61% 0.00in /  0mm meteobridge W/m2
18:23 69.4 °F /  20.8 °C 55.4 °F /  13 °C 29.70in /  1005.6hPa South 4.9mph /  7.9km/h 11.0mph /  17.7km/h 61% 0.00in /  0mm meteobridge W/m2
18:29 69.4 °F /  20.8 °C 55.4 °F /  13 °C 29.70in /  1005.6hPa South 4.9mph /  7.9km/h 13.0mph /  20.9km/h 61% 0.00in /  0mm meteobridge W/m2
18:35 69.4 °F /  20.8 °C 55.4 °F /  13 °C 29.71in /  1006hPa SSW 6.9mph /  11.1km/h 10.0mph /  16.1km/h 61% 0.00in /  0mm meteobridge W/m2
18:41 68.0 °F /  20 °C 56.7 °F /  13.7 °C 29.72in /  1006.3hPa SW 11.0mph /  17.7km/h 27.0mph /  43.5km/h 67% 0.00in /  0mm meteobridge W/m2
18:47 66.4 °F /  19.1 °C 57.0 °F /  13.9 °C 29.72in /  1006.3hPa SSW 13.0mph /  20.9km/h 18.0mph /  29km/h 72% 0.00in /  0mm meteobridge W/m2
18:53 66.2 °F /  19 °C 56.8 °F /  13.8 °C 29.72in /  1006.3hPa South 6.9mph /  11.1km/h 7.0mph /  11.3km/h 72% 0.00in /  0mm meteobridge W/m2
19:00 66.2 °F /  19 °C 56.8 °F /  13.8 °C 29.72in /  1006.3hPa South 6.9mph /  11.1km/h -999.0mph /  -1607.7km/h 72% 0.00in /  0mm meteobridge W/m2
19:06 66.2 °F /  19 °C 56.8 °F /  13.8 °C 29.73in /  1006.7hPa North -999.9mph /  -1609.1km/h -999.0mph /  -1607.7km/h 72% 0.00in /  0mm meteobridge W/m2
Regenstein, Windhoek, Namibia
Compliments of Weather Underground - 2.5 mb